createdAt,value
2023-05-09T00:00:43.322Z,2.96
2023-05-09T00:03:10.176Z,2.80
2023-05-09T00:05:36.840Z,2.69
2023-05-09T00:08:03.673Z,2.76
2023-05-09T00:10:30.492Z,2.49
2023-05-09T00:12:57.281Z,2.79
2023-05-09T00:15:24.022Z,2.49
2023-05-09T00:17:50.829Z,2.60
2023-05-09T00:20:17.536Z,2.67
2023-05-09T00:22:44.299Z,2.44
2023-05-09T00:25:12.014Z,2.43
2023-05-09T00:27:38.936Z,2.60
2023-05-09T00:30:06.700Z,2.70
2023-05-09T00:32:34.184Z,2.84
2023-05-09T00:35:00.912Z,2.52
2023-05-09T00:37:29.423Z,2.69
2023-05-09T00:39:57.536Z,2.70
2023-05-09T00:42:24.359Z,2.67
2023-05-09T00:44:51.050Z,2.79
2023-05-09T00:47:18.023Z,2.71
2023-05-09T00:49:44.835Z,2.66
2023-05-09T00:52:11.587Z,3.02
2023-05-09T00:54:38.334Z,2.79
2023-05-09T00:57:05.006Z,2.89
2023-05-09T00:59:31.691Z,2.83
2023-05-09T01:01:58.617Z,2.83
2023-05-09T01:04:25.413Z,2.78
2023-05-09T01:07:01.825Z,2.84
2023-05-09T01:09:49.733Z,2.55
2023-05-09T01:13:09.467Z,2.94
2023-05-09T01:15:43.276Z,2.72
2023-05-09T01:18:19.667Z,2.77
2023-05-09T01:20:53.372Z,2.59
2023-05-09T01:23:38.765Z,2.73
2023-05-09T01:26:19.048Z,2.85
2023-05-09T01:29:23.005Z,2.76
2023-05-09T01:31:52.224Z,2.72
2023-05-09T01:34:26.322Z,2.39
2023-05-09T01:36:59.652Z,2.71
2023-05-09T01:39:28.281Z,2.58
2023-05-09T01:42:00.601Z,2.62
2023-05-09T01:44:34.459Z,2.80
2023-05-09T01:47:02.720Z,2.56
2023-05-09T01:49:33.761Z,2.88
2023-05-09T01:52:07.023Z,3.11
2023-05-09T01:54:36.309Z,2.85
2023-05-09T01:57:06.087Z,2.63
2023-05-09T01:59:34.830Z,2.73
2023-05-09T02:02:04.533Z,2.75
2023-05-09T02:04:32.946Z,2.75
2023-05-09T02:07:02.355Z,2.53
2023-05-09T02:09:29.009Z,2.45
2023-05-09T02:11:55.643Z,2.57
2023-05-09T02:14:22.343Z,2.95
2023-05-09T02:16:49.189Z,2.88
2023-05-09T02:19:15.884Z,2.58
2023-05-09T02:21:42.884Z,2.74
2023-05-09T02:24:09.658Z,2.67
2023-05-09T02:26:36.484Z,2.63
2023-05-09T02:29:06.852Z,2.75
2023-05-09T02:31:36.054Z,2.81
2023-05-09T02:34:06.951Z,2.77
2023-05-09T02:36:34.683Z,2.60
2023-05-09T02:39:02.209Z,2.45
2023-05-09T02:41:30.209Z,2.77
2023-05-09T02:43:56.812Z,2.59
2023-05-09T02:46:23.754Z,2.66
2023-05-09T02:48:50.472Z,2.79
2023-05-09T02:51:17.164Z,2.77
2023-05-09T02:53:43.811Z,2.57
2023-05-09T02:56:10.447Z,2.64
2023-05-09T02:58:37.371Z,2.68
2023-05-09T03:01:04.358Z,2.68
2023-05-09T03:03:31.655Z,2.81
2023-05-09T03:05:58.381Z,2.84
2023-05-09T03:08:25.075Z,2.86
2023-05-09T03:10:51.760Z,2.74
2023-05-09T03:13:18.430Z,2.78
2023-05-09T03:15:45.195Z,2.76
2023-05-09T03:18:12.081Z,2.58
2023-05-09T03:20:38.844Z,2.74
2023-05-09T03:23:05.481Z,2.68
2023-05-09T03:25:32.099Z,2.55
2023-05-09T03:27:58.741Z,2.73
2023-05-09T03:30:25.362Z,2.77
2023-05-09T03:32:52.020Z,2.85
2023-05-09T03:35:18.799Z,2.76
2023-05-09T03:37:45.435Z,2.68
2023-05-09T03:40:12.231Z,2.96
2023-05-09T03:42:38.852Z,2.85
2023-05-09T03:45:05.877Z,2.83
2023-05-09T03:47:32.539Z,2.92
2023-05-09T03:49:59.193Z,2.75
2023-05-09T03:52:25.851Z,2.62
2023-05-09T03:54:52.504Z,2.85
2023-05-09T03:57:19.139Z,2.86
2023-05-09T03:59:45.853Z,2.90
2023-05-09T04:02:12.595Z,2.84
2023-05-09T04:04:39.597Z,2.67
2023-05-09T04:07:06.269Z,2.79
2023-05-09T04:09:33.174Z,2.72
2023-05-09T04:11:59.771Z,2.89
2023-05-09T04:14:26.416Z,2.96
2023-05-09T04:16:53.112Z,3.16
2023-05-09T04:19:19.746Z,3.04
2023-05-09T04:21:46.462Z,3.00
2023-05-09T04:24:13.225Z,2.79
2023-05-09T04:26:39.917Z,3.10
2023-05-09T04:29:06.604Z,3.31
2023-05-09T04:31:33.428Z,3.12
2023-05-09T04:34:00.101Z,3.47
2023-05-09T04:36:26.759Z,3.25
2023-05-09T04:38:53.411Z,3.11
2023-05-09T04:41:20.020Z,3.10
2023-05-09T04:43:46.662Z,3.09
2023-05-09T04:46:13.385Z,3.10
2023-05-09T04:48:40.358Z,3.26
2023-05-09T04:51:07.187Z,3.15
2023-05-09T04:53:33.826Z,3.12
2023-05-09T04:56:00.490Z,3.22
2023-05-09T04:58:27.131Z,2.91
2023-05-09T05:00:53.728Z,3.29
2023-05-09T05:03:20.380Z,3.41
2023-05-09T05:05:47.082Z,3.19
2023-05-09T05:08:13.808Z,3.16
2023-05-09T05:10:40.406Z,3.14
2023-05-09T05:13:07.159Z,3.06
2023-05-09T05:15:33.929Z,3.20
2023-05-09T05:18:00.548Z,3.03
2023-05-09T05:20:27.698Z,2.89
2023-05-09T05:22:54.497Z,2.90
2023-05-09T05:25:21.171Z,2.95
2023-05-09T05:27:47.888Z,2.81
2023-05-09T05:30:14.649Z,3.03
2023-05-09T05:32:41.665Z,2.74
2023-05-09T05:35:08.685Z,2.94
2023-05-09T05:37:35.361Z,2.95
2023-05-09T05:40:02.043Z,2.96
2023-05-09T05:42:28.717Z,2.87
2023-05-09T05:44:55.513Z,2.66
2023-05-09T05:47:22.117Z,2.77
2023-05-09T05:49:49.133Z,3.03
2023-05-09T05:52:15.713Z,3.05
2023-05-09T05:54:42.374Z,2.89
2023-05-09T05:57:09.007Z,2.90
2023-05-09T05:59:35.692Z,3.03
2023-05-09T06:02:02.346Z,3.09
2023-05-09T06:04:30.261Z,3.09
2023-05-09T06:06:57.016Z,3.33
2023-05-09T06:09:23.700Z,3.05
2023-05-09T06:11:50.371Z,3.25
2023-05-09T06:14:17.001Z,3.16
2023-05-09T06:16:43.709Z,3.12
2023-05-09T06:19:10.317Z,3.38
2023-05-09T06:21:37.004Z,2.97
2023-05-09T06:24:10.130Z,3.18
2023-05-09T06:26:42.048Z,3.34
2023-05-09T06:29:08.881Z,3.81
2023-05-09T06:31:35.580Z,3.45
2023-05-09T06:34:02.195Z,3.43
2023-05-09T06:36:28.854Z,3.31
2023-05-09T06:38:55.487Z,3.61
2023-05-09T06:41:22.095Z,3.70
2023-05-09T06:43:49.922Z,3.71
2023-05-09T06:46:16.654Z,3.74
2023-05-09T06:48:43.460Z,3.46
2023-05-09T06:51:10.124Z,3.29
2023-05-09T06:53:37.096Z,3.71
2023-05-09T06:56:04.620Z,3.45
2023-05-09T06:58:31.368Z,3.50
2023-05-09T07:00:58.049Z,3.70
2023-05-09T07:03:24.751Z,3.51
2023-05-09T07:05:51.402Z,3.54
2023-05-09T07:08:18.081Z,3.68
2023-05-09T07:10:44.869Z,3.95
2023-05-09T07:13:11.594Z,3.72
2023-05-09T07:15:41.786Z,3.86
2023-05-09T07:18:09.538Z,3.72
2023-05-09T07:20:36.395Z,3.91
2023-05-09T07:23:03.757Z,3.79
2023-05-09T07:25:30.522Z,3.80
2023-05-09T07:27:57.134Z,3.36
2023-05-09T07:30:23.871Z,3.46
2023-05-09T07:32:50.716Z,3.46
2023-05-09T07:35:18.653Z,3.31
2023-05-09T07:37:45.485Z,3.08
2023-05-09T07:40:12.782Z,3.14
2023-05-09T07:42:39.639Z,3.07
2023-05-09T07:45:06.987Z,3.35
2023-05-09T07:47:33.685Z,3.34
2023-05-09T07:50:00.368Z,3.33
2023-05-09T07:52:26.994Z,3.36
2023-05-09T07:54:53.643Z,3.12
2023-05-09T07:57:20.273Z,4.39
2023-05-09T07:59:50.104Z,3.51
2023-05-09T08:02:16.842Z,2.82
2023-05-09T08:04:43.593Z,2.76
2023-05-09T08:07:10.226Z,3.41
2023-05-09T08:09:36.967Z,3.12
2023-05-09T08:12:03.854Z,2.93
2023-05-09T08:14:30.464Z,2.97
2023-05-09T08:16:57.325Z,3.08
2023-05-09T08:19:23.956Z,2.84
2023-05-09T08:21:50.563Z,3.07
2023-05-09T08:24:17.224Z,2.95
2023-05-09T08:26:46.692Z,2.88
2023-05-09T08:29:13.355Z,2.84
2023-05-09T08:31:40.285Z,3.01
2023-05-09T08:34:06.880Z,2.75
2023-05-09T08:36:33.491Z,2.83
2023-05-09T08:39:00.425Z,2.67
2023-05-09T08:41:27.109Z,2.96
2023-05-09T08:43:55.123Z,3.13
2023-05-09T08:46:49.758Z,3.15
2023-05-09T08:49:17.080Z,3.12
2023-05-09T08:51:45.077Z,2.90
2023-05-09T08:54:12.091Z,2.87
2023-05-09T08:56:40.720Z,3.16
2023-05-09T08:59:07.664Z,3.05
2023-05-09T09:01:34.859Z,2.95
2023-05-09T09:04:05.439Z,2.98
2023-05-09T09:06:34.843Z,2.78
2023-05-09T09:09:02.334Z,2.85
2023-05-09T09:11:29.896Z,3.03
2023-05-09T09:14:03.515Z,3.03
2023-05-09T09:16:32.098Z,3.04
2023-05-09T09:18:59.128Z,2.95
2023-05-09T09:21:26.086Z,3.04
2023-05-09T09:23:55.538Z,2.91
2023-05-09T09:26:22.335Z,2.68
2023-05-09T09:28:48.957Z,3.07
2023-05-09T09:31:26.195Z,3.14
2023-05-09T09:34:00.185Z,3.14
2023-05-09T09:36:31.061Z,3.16
2023-05-09T09:39:04.023Z,3.11
2023-05-09T09:41:35.968Z,3.30
2023-05-09T09:44:10.666Z,3.12
2023-05-09T09:46:49.053Z,3.39
2023-05-09T09:49:18.407Z,3.30
2023-05-09T09:51:50.207Z,3.37
2023-05-09T09:54:17.246Z,3.18
2023-05-09T09:56:47.098Z,3.25
2023-05-09T09:59:16.770Z,3.17
2023-05-09T10:02:07.447Z,3.45
2023-05-09T10:04:37.771Z,3.01
2023-05-09T10:07:07.034Z,3.18
2023-05-09T10:09:35.316Z,3.26
2023-05-09T10:12:04.610Z,3.39
2023-05-09T10:14:35.137Z,3.32
2023-05-09T10:17:04.467Z,3.63
2023-05-09T10:19:31.888Z,3.47
2023-05-09T10:22:04.743Z,3.48
2023-05-09T10:24:51.072Z,3.25
2023-05-09T10:27:22.748Z,3.62
2023-05-09T10:29:57.278Z,3.40
2023-05-09T10:32:30.908Z,3.64
2023-05-09T10:35:05.190Z,3.15
2023-05-09T10:37:33.347Z,3.01
2023-05-09T10:40:02.918Z,2.72
2023-05-09T10:42:30.377Z,2.70
2023-05-09T10:44:57.926Z,2.51
2023-05-09T10:47:29.680Z,2.20
2023-05-09T10:49:56.407Z,2.53
2023-05-09T10:52:23.401Z,2.74
2023-05-09T10:55:16.314Z,2.46
2023-05-09T10:57:53.362Z,2.26
2023-05-09T11:00:25.121Z,2.49
2023-05-09T11:03:18.366Z,2.48
2023-05-09T11:05:46.657Z,2.40
2023-05-09T11:08:26.755Z,2.62
2023-05-09T11:10:56.052Z,2.80
2023-05-09T11:13:31.100Z,3.21
2023-05-09T11:16:00.837Z,2.97
2023-05-09T11:18:28.676Z,2.87
2023-05-09T11:20:56.510Z,3.09
2023-05-09T11:23:27.391Z,2.75
2023-05-09T11:26:05.454Z,2.99
2023-05-09T11:28:37.549Z,2.84
2023-05-09T11:31:12.762Z,3.17
2023-05-09T11:33:41.131Z,2.82
2023-05-09T11:36:24.177Z,2.85
2023-05-09T11:39:05.328Z,2.85
2023-05-09T11:41:39.977Z,2.88
2023-05-09T11:44:17.908Z,2.59
2023-05-09T11:46:48.917Z,2.51
2023-05-09T11:49:16.161Z,2.49
2023-05-09T11:51:42.818Z,2.66
2023-05-09T11:54:09.778Z,2.61
2023-05-09T11:56:40.147Z,2.76
2023-05-09T11:59:07.822Z,2.07
2023-05-09T12:01:36.348Z,2.37
2023-05-09T12:04:03.125Z,2.33
2023-05-09T12:06:30.176Z,2.04
2023-05-09T12:08:56.882Z,2.04
2023-05-09T12:11:24.913Z,2.34
2023-05-09T12:13:52.902Z,2.11
2023-05-09T12:16:20.816Z,1.97
2023-05-09T12:18:49.759Z,1.96
2023-05-09T12:21:18.198Z,2.15
2023-05-09T12:23:48.394Z,2.14
2023-05-09T12:26:15.775Z,2.13
2023-05-09T12:28:43.439Z,2.09
2023-05-09T12:31:10.529Z,2.04
2023-05-09T12:33:38.727Z,2.20
2023-05-09T12:36:05.743Z,2.25
2023-05-09T12:38:33.071Z,1.93
2023-05-09T12:41:03.947Z,2.09
2023-05-09T12:43:35.559Z,1.98
2023-05-09T12:46:03.210Z,2.19
2023-05-09T12:48:36.062Z,2.14
2023-05-09T12:51:06.315Z,2.41
2023-05-09T12:53:41.354Z,2.10
2023-05-09T12:56:17.235Z,2.25
2023-05-09T12:58:51.519Z,2.35
2023-05-09T13:01:19.485Z,2.44
2023-05-09T13:04:02.056Z,2.70
2023-05-09T13:06:28.896Z,2.80
2023-05-09T13:09:00.305Z,3.02
2023-05-09T13:11:28.661Z,2.86
2023-05-09T13:13:55.693Z,2.80
2023-05-09T13:16:22.378Z,3.25
2023-05-09T13:18:49.093Z,3.34
2023-05-09T13:21:15.767Z,3.28
2023-05-09T13:23:42.376Z,3.67
2023-05-09T13:26:10.377Z,4.07
2023-05-09T13:28:37.077Z,3.78
2023-05-09T13:31:03.893Z,3.91
2023-05-09T13:33:30.585Z,3.78
2023-05-09T13:35:57.402Z,4.12
2023-05-09T13:38:24.025Z,4.36
2023-05-09T13:40:50.834Z,4.31
2023-05-09T13:43:17.443Z,4.78
2023-05-09T13:45:44.100Z,4.79
2023-05-09T13:48:10.779Z,5.32
2023-05-09T13:50:37.500Z,5.26
2023-05-09T13:53:04.110Z,5.53
2023-05-09T13:55:30.797Z,5.53
2023-05-09T13:57:57.633Z,5.75
2023-05-09T14:00:24.384Z,5.86
2023-05-09T14:02:51.514Z,6.36
2023-05-09T14:05:18.495Z,5.95
2023-05-09T14:07:45.286Z,6.35
2023-05-09T14:10:12.783Z,6.55
2023-05-09T14:12:40.400Z,6.92
2023-05-09T14:15:08.397Z,7.13
2023-05-09T14:17:35.284Z,7.35
2023-05-09T14:20:02.279Z,6.87
2023-05-09T14:22:29.158Z,7.01
2023-05-09T14:24:55.765Z,6.99
2023-05-09T14:27:22.635Z,7.03
2023-05-09T14:29:51.816Z,6.74
2023-05-09T14:32:18.454Z,6.37
2023-05-09T14:34:45.297Z,6.78
2023-05-09T14:37:11.936Z,6.76
2023-05-09T14:39:38.733Z,6.45
2023-05-09T14:42:05.415Z,6.77
2023-05-09T14:44:32.181Z,6.65
2023-05-09T14:46:59.027Z,6.10
2023-05-09T14:49:30.080Z,6.00
2023-05-09T14:51:56.723Z,5.67
2023-05-09T14:54:23.435Z,5.30
2023-05-09T14:56:50.066Z,5.48
2023-05-09T14:59:16.757Z,5.21
2023-05-09T15:01:43.450Z,4.75
2023-05-09T15:04:10.095Z,4.15
2023-05-09T15:06:39.734Z,4.38
2023-05-09T15:09:06.591Z,4.09
2023-05-09T15:11:46.232Z,3.78
2023-05-09T15:14:14.896Z,4.71
2023-05-09T15:16:42.198Z,4.49
2023-05-09T15:19:09.058Z,4.45
2023-05-09T15:21:37.100Z,4.44
2023-05-09T15:24:04.759Z,4.20
2023-05-09T15:26:31.464Z,4.00
2023-05-09T15:28:58.133Z,3.79
2023-05-09T15:31:24.827Z,3.86
2023-05-09T15:33:51.617Z,3.34
2023-05-09T15:36:18.226Z,3.84
2023-05-09T15:38:44.917Z,3.18
2023-05-09T15:41:11.594Z,3.09
2023-05-09T15:43:38.229Z,3.15
2023-05-09T15:46:04.999Z,3.09
2023-05-09T15:48:31.685Z,3.09
2023-05-09T15:50:58.323Z,2.95
2023-05-09T15:53:24.968Z,3.13
2023-05-09T15:55:51.636Z,3.32
2023-05-09T15:58:18.259Z,3.56
2023-05-09T16:00:44.975Z,3.53
2023-05-09T16:03:11.692Z,3.69
2023-05-09T16:05:38.462Z,3.92
2023-05-09T16:08:05.181Z,3.32
2023-05-09T16:10:33.403Z,3.47
2023-05-09T16:13:00.190Z,3.74
2023-05-09T16:15:26.906Z,3.56
2023-05-09T16:17:53.640Z,3.34
2023-05-09T16:20:20.533Z,3.52
2023-05-09T16:22:47.167Z,4.04
2023-05-09T16:25:14.033Z,3.65
2023-05-09T16:27:40.791Z,4.07
2023-05-09T16:30:08.095Z,4.01
2023-05-09T16:32:34.751Z,4.22
2023-05-09T16:35:01.481Z,4.27
2023-05-09T16:37:28.121Z,4.65
2023-05-09T16:39:54.771Z,4.58
2023-05-09T16:42:21.453Z,4.94
2023-05-09T16:44:48.318Z,4.86
2023-05-09T16:47:16.112Z,5.61
2023-05-09T16:49:42.757Z,4.80
2023-05-09T16:52:09.443Z,5.03
2023-05-09T16:54:36.054Z,5.06
2023-05-09T16:57:02.782Z,5.38
2023-05-09T16:59:29.481Z,5.58
2023-05-09T17:01:56.122Z,5.37
2023-05-09T17:04:22.898Z,4.83
2023-05-09T17:06:49.530Z,7.96
2023-05-09T17:09:16.184Z,8.05
2023-05-09T17:11:42.930Z,5.15
2023-05-09T17:14:09.592Z,4.73
2023-05-09T17:16:38.091Z,4.33
2023-05-09T17:19:05.137Z,3.79
2023-05-09T17:21:31.828Z,4.07
2023-05-09T17:23:58.455Z,3.91
2023-05-09T17:26:25.167Z,3.27
2023-05-09T17:28:51.833Z,3.44
2023-05-09T17:31:18.554Z,3.55
2023-05-09T17:33:45.236Z,3.18
2023-05-09T17:36:11.932Z,2.94
2023-05-09T17:38:38.637Z,2.73
2023-05-09T17:41:05.526Z,2.45
2023-05-09T17:43:32.295Z,2.78
2023-05-09T17:45:58.956Z,2.45
2023-05-09T17:48:25.830Z,2.24
2023-05-09T17:50:52.474Z,2.16
2023-05-09T17:53:19.334Z,2.52
2023-05-09T17:55:46.002Z,2.27
2023-05-09T17:58:12.651Z,2.21
2023-05-09T18:00:39.280Z,2.11
2023-05-09T18:03:09.276Z,2.20
2023-05-09T18:05:38.863Z,2.13
2023-05-09T18:08:05.536Z,2.18
2023-05-09T18:10:32.260Z,2.04
2023-05-09T18:12:58.952Z,1.83
2023-05-09T18:15:25.623Z,1.99
2023-05-09T18:17:52.368Z,3.15
2023-05-09T18:20:19.135Z,3.56
2023-05-09T18:22:46.939Z,4.55
2023-05-09T18:25:13.635Z,2.28
2023-05-09T18:27:40.248Z,7.60
2023-05-09T18:30:07.581Z,3.35
2023-05-09T18:32:34.239Z,3.70
2023-05-09T18:35:00.894Z,1.90
2023-05-09T18:37:27.587Z,2.48
2023-05-09T18:39:55.290Z,2.58
2023-05-09T18:42:21.946Z,1.10
2023-05-09T18:44:48.644Z,1.23
2023-05-09T18:47:15.689Z,0.97
2023-05-09T18:49:42.600Z,1.32
2023-05-09T18:52:09.579Z,1.55
2023-05-09T18:54:36.346Z,1.45
2023-05-09T18:57:03.139Z,3.64
2023-05-09T18:59:29.763Z,3.81
2023-05-09T19:01:56.391Z,3.71
2023-05-09T19:04:23.143Z,2.59
2023-05-09T19:06:49.817Z,1.97
2023-05-09T19:09:16.479Z,1.63
2023-05-09T19:11:43.246Z,3.13
2023-05-09T19:14:10.064Z,1.33
2023-05-09T19:16:36.748Z,2.81
2023-05-09T19:19:03.419Z,1.86
2023-05-09T19:21:30.052Z,0.91
2023-05-09T19:23:56.749Z,0.88
2023-05-09T19:26:23.371Z,0.81
2023-05-09T19:28:50.124Z,0.73
2023-05-09T19:31:17.615Z,1.33
2023-05-09T19:33:44.582Z,1.00
2023-05-09T19:36:11.206Z,0.75
2023-05-09T19:38:37.869Z,1.32
2023-05-09T19:41:04.470Z,0.82
2023-05-09T19:43:31.088Z,0.76
2023-05-09T19:45:57.802Z,0.76
2023-05-09T19:48:24.438Z,1.05
2023-05-09T19:50:56.568Z,1.04
2023-05-09T19:53:23.532Z,1.29
2023-05-09T19:55:50.192Z,1.41
2023-05-09T19:58:17.750Z,1.67
2023-05-09T20:00:45.164Z,1.39
2023-05-09T20:03:12.337Z,1.07
2023-05-09T20:05:39.056Z,1.28
2023-05-09T20:08:05.765Z,1.61
2023-05-09T20:10:32.349Z,1.73
2023-05-09T20:12:58.964Z,1.39
2023-05-09T20:15:25.860Z,1.95
2023-05-09T20:17:52.499Z,1.77
2023-05-09T20:20:19.362Z,2.01
2023-05-09T20:22:45.983Z,1.77
2023-05-09T20:25:12.620Z,1.61
2023-05-09T20:27:39.281Z,1.86
2023-05-09T20:30:06.527Z,1.84
2023-05-09T20:32:34.640Z,1.99
2023-05-09T20:35:01.337Z,2.31
2023-05-09T20:37:27.961Z,1.79
2023-05-09T20:39:54.576Z,1.66
2023-05-09T20:42:25.001Z,1.76
2023-05-09T20:44:52.210Z,1.39
2023-05-09T20:47:18.844Z,1.37
2023-05-09T20:49:45.599Z,1.37
2023-05-09T20:52:12.421Z,1.65
2023-05-09T20:54:39.032Z,1.52
2023-05-09T20:57:05.669Z,1.66
2023-05-09T20:59:32.301Z,1.68
2023-05-09T21:01:59.006Z,1.48
2023-05-09T21:04:25.701Z,1.22
2023-05-09T21:06:52.338Z,1.01
2023-05-09T21:09:19.475Z,1.08
2023-05-09T21:11:46.221Z,1.05
2023-05-09T21:14:12.858Z,1.28
2023-05-09T21:16:39.510Z,1.19
2023-05-09T21:19:06.805Z,1.19
2023-05-09T21:21:33.500Z,1.09
2023-05-09T21:24:01.146Z,1.25
2023-05-09T21:26:27.738Z,1.21
2023-05-09T21:28:54.593Z,1.20
2023-05-09T21:31:21.229Z,1.14
2023-05-09T21:33:47.900Z,1.00
2023-05-09T21:36:14.572Z,1.01
2023-05-09T21:38:41.243Z,1.19
2023-05-09T21:41:07.872Z,1.02
2023-05-09T21:43:34.700Z,0.97
2023-05-09T21:46:03.573Z,0.94
2023-05-09T21:48:30.264Z,1.02
2023-05-09T21:50:56.972Z,1.03
2023-05-09T21:53:23.595Z,0.90
2023-05-09T21:55:50.210Z,0.92
2023-05-09T21:58:16.846Z,0.89
2023-05-09T22:00:43.432Z,0.97
2023-05-09T22:03:10.159Z,0.79
2023-05-09T22:05:36.984Z,0.83
2023-05-09T22:08:03.750Z,0.84
2023-05-09T22:10:30.341Z,0.89
2023-05-09T22:12:56.950Z,0.77
2023-05-09T22:15:23.713Z,0.90
2023-05-09T22:17:50.391Z,0.82
2023-05-09T22:20:17.264Z,1.05
2023-05-09T22:22:44.196Z,0.85
2023-05-09T22:25:10.810Z,0.89
2023-05-09T22:27:38.268Z,0.96
2023-05-09T22:30:05.699Z,1.04
2023-05-09T22:32:32.361Z,0.93
2023-05-09T22:34:58.998Z,0.85
2023-05-09T22:37:25.611Z,0.83
2023-05-09T22:39:52.295Z,0.86
2023-05-09T22:42:18.993Z,0.80
2023-05-09T22:44:45.953Z,0.63
2023-05-09T22:47:12.634Z,0.65
2023-05-09T22:49:39.244Z,0.83
2023-05-09T22:52:05.932Z,0.69
2023-05-09T22:54:32.763Z,0.79
2023-05-09T22:56:59.467Z,0.80
2023-05-09T22:59:26.113Z,0.81
2023-05-09T23:01:52.721Z,0.68
2023-05-09T23:04:19.352Z,0.84
2023-05-09T23:06:45.970Z,0.83
2023-05-09T23:09:12.551Z,0.88
2023-05-09T23:11:39.197Z,0.92
2023-05-09T23:14:05.791Z,0.91
2023-05-09T23:16:32.664Z,0.85
2023-05-09T23:18:59.313Z,0.75
2023-05-09T23:21:26.042Z,0.77
2023-05-09T23:23:52.657Z,0.87
2023-05-09T23:26:19.334Z,0.91
2023-05-09T23:28:46.318Z,0.93
2023-05-09T23:31:13.079Z,0.98
2023-05-09T23:33:39.747Z,1.00
2023-05-09T23:36:06.734Z,0.96
2023-05-09T23:38:33.342Z,0.97
2023-05-09T23:41:00.027Z,0.91
2023-05-09T23:43:26.744Z,0.84
2023-05-09T23:45:53.537Z,0.80
2023-05-09T23:48:20.161Z,0.81
2023-05-09T23:50:46.794Z,0.76
2023-05-09T23:53:13.397Z,0.74
2023-05-09T23:55:39.989Z,0.81
2023-05-09T23:58:06.604Z,0.73
